sensor_id;sensor_type;location;lat;lon;timestamp;P1;durP1;ratioP1;P2;durP2;ratioP2
3689;SDS011;1861;50.240;8.596;2023-05-27T00:00:52;4.70;;;2.43;;
3689;SDS011;1861;50.240;8.596;2023-05-27T00:03:21;9.10;;;2.10;;
3689;SDS011;1861;50.240;8.596;2023-05-27T00:05:49;9.20;;;2.00;;
3689;SDS011;1861;50.240;8.596;2023-05-27T00:08:18;5.67;;;2.40;;
3689;SDS011;1861;50.240;8.596;2023-05-27T00:10:46;7.10;;;2.07;;
3689;SDS011;1861;50.240;8.596;2023-05-27T00:13:15;10.07;;;2.47;;
3689;SDS011;1861;50.240;8.596;2023-05-27T00:15:44;9.03;;;2.40;;
3689;SDS011;1861;50.240;8.596;2023-05-27T00:18:12;15.77;;;2.60;;
3689;SDS011;1861;50.240;8.596;2023-05-27T00:20:41;5.47;;;1.90;;
3689;SDS011;1861;50.240;8.596;2023-05-27T00:23:10;6.07;;;1.97;;
3689;SDS011;1861;50.240;8.596;2023-05-27T00:25:38;5.83;;;2.27;;
3689;SDS011;1861;50.240;8.596;2023-05-27T00:28:06;6.70;;;2.10;;
3689;SDS011;1861;50.240;8.596;2023-05-27T00:30:35;6.83;;;2.30;;
3689;SDS011;1861;50.240;8.596;2023-05-27T00:33:05;13.60;;;4.40;;
3689;SDS011;1861;50.240;8.596;2023-05-27T00:35:33;8.30;;;2.07;;
3689;SDS011;1861;50.240;8.596;2023-05-27T00:38:03;5.77;;;2.63;;
3689;SDS011;1861;50.240;8.596;2023-05-27T00:40:32;7.20;;;2.10;;
3689;SDS011;1861;50.240;8.596;2023-05-27T00:43:03;7.00;;;2.40;;
3689;SDS011;1861;50.240;8.596;2023-05-27T00:45:32;6.10;;;1.90;;
3689;SDS011;1861;50.240;8.596;2023-05-27T00:48:02;8.57;;;2.20;;
3689;SDS011;1861;50.240;8.596;2023-05-27T00:50:32;4.20;;;2.17;;
3689;SDS011;1861;50.240;8.596;2023-05-27T00:53:00;12.00;;;3.17;;
3689;SDS011;1861;50.240;8.596;2023-05-27T00:55:29;12.27;;;3.10;;
3689;SDS011;1861;50.240;8.596;2023-05-27T00:57:58;9.80;;;2.20;;
3689;SDS011;1861;50.240;8.596;2023-05-27T01:00:27;6.53;;;2.30;;
3689;SDS011;1861;50.240;8.596;2023-05-27T01:02:55;6.60;;;2.50;;
3689;SDS011;1861;50.240;8.596;2023-05-27T01:05:24;5.13;;;2.00;;
3689;SDS011;1861;50.240;8.596;2023-05-27T01:07:59;8.33;;;2.20;;
3689;SDS011;1861;50.240;8.596;2023-05-27T01:10:40;4.70;;;2.17;;
3689;SDS011;1861;50.240;8.596;2023-05-27T01:13:13;6.73;;;2.33;;
3689;SDS011;1861;50.240;8.596;2023-05-27T01:15:46;5.00;;;1.83;;
3689;SDS011;1861;50.240;8.596;2023-05-27T01:18:16;7.70;;;2.40;;
3689;SDS011;1861;50.240;8.596;2023-05-27T01:20:47;10.47;;;2.50;;
3689;SDS011;1861;50.240;8.596;2023-05-27T01:23:17;6.83;;;2.50;;
3689;SDS011;1861;50.240;8.596;2023-05-27T01:25:46;6.60;;;2.67;;
3689;SDS011;1861;50.240;8.596;2023-05-27T01:28:15;7.63;;;2.13;;
3689;SDS011;1861;50.240;8.596;2023-05-27T01:30:43;8.67;;;2.60;;
3689;SDS011;1861;50.240;8.596;2023-05-27T01:33:12;7.57;;;2.63;;
3689;SDS011;1861;50.240;8.596;2023-05-27T01:35:51;9.30;;;2.10;;
3689;SDS011;1861;50.240;8.596;2023-05-27T01:38:26;6.13;;;2.30;;
3689;SDS011;1861;50.240;8.596;2023-05-27T01:40:58;8.83;;;2.10;;
3689;SDS011;1861;50.240;8.596;2023-05-27T01:43:27;7.67;;;2.80;;
3689;SDS011;1861;50.240;8.596;2023-05-27T01:45:57;10.23;;;2.30;;
3689;SDS011;1861;50.240;8.596;2023-05-27T01:48:25;10.27;;;2.77;;
3689;SDS011;1861;50.240;8.596;2023-05-27T01:50:53;8.70;;;2.67;;
3689;SDS011;1861;50.240;8.596;2023-05-27T01:53:22;9.73;;;2.30;;
3689;SDS011;1861;50.240;8.596;2023-05-27T01:55:51;10.73;;;1.87;;
3689;SDS011;1861;50.240;8.596;2023-05-27T01:58:19;8.10;;;3.23;;
3689;SDS011;1861;50.240;8.596;2023-05-27T02:00:48;9.60;;;2.40;;
3689;SDS011;1861;50.240;8.596;2023-05-27T02:03:16;9.03;;;2.17;;
3689;SDS011;1861;50.240;8.596;2023-05-27T02:05:45;8.10;;;2.10;;
3689;SDS011;1861;50.240;8.596;2023-05-27T02:08:13;10.17;;;2.20;;
3689;SDS011;1861;50.240;8.596;2023-05-27T02:10:41;11.20;;;2.13;;
3689;SDS011;1861;50.240;8.596;2023-05-27T02:13:10;9.83;;;2.73;;
3689;SDS011;1861;50.240;8.596;2023-05-27T02:15:39;7.40;;;1.90;;
3689;SDS011;1861;50.240;8.596;2023-05-27T02:18:08;7.53;;;2.70;;
3689;SDS011;1861;50.240;8.596;2023-05-27T02:20:36;14.73;;;3.10;;
3689;SDS011;1861;50.240;8.596;2023-05-27T02:23:06;10.73;;;2.73;;
3689;SDS011;1861;50.240;8.596;2023-05-27T02:25:34;12.33;;;4.07;;
3689;SDS011;1861;50.240;8.596;2023-05-27T02:28:05;10.73;;;2.60;;
3689;SDS011;1861;50.240;8.596;2023-05-27T02:30:34;8.50;;;2.10;;
3689;SDS011;1861;50.240;8.596;2023-05-27T02:33:03;7.50;;;2.23;;
3689;SDS011;1861;50.240;8.596;2023-05-27T02:35:32;10.70;;;3.10;;
3689;SDS011;1861;50.240;8.596;2023-05-27T02:38:00;5.63;;;2.70;;
3689;SDS011;1861;50.240;8.596;2023-05-27T02:40:29;4.77;;;1.97;;
3689;SDS011;1861;50.240;8.596;2023-05-27T02:42:57;8.63;;;2.37;;
3689;SDS011;1861;50.240;8.596;2023-05-27T02:45:26;12.03;;;2.67;;
3689;SDS011;1861;50.240;8.596;2023-05-27T02:47:55;8.50;;;2.17;;
3689;SDS011;1861;50.240;8.596;2023-05-27T02:50:28;8.77;;;2.20;;
3689;SDS011;1861;50.240;8.596;2023-05-27T02:52:56;6.40;;;2.40;;
3689;SDS011;1861;50.240;8.596;2023-05-27T02:55:25;7.73;;;2.50;;
3689;SDS011;1861;50.240;8.596;2023-05-27T02:57:53;12.43;;;2.00;;
3689;SDS011;1861;50.240;8.596;2023-05-27T03:00:21;3.10;;;1.90;;
3689;SDS011;1861;50.240;8.596;2023-05-27T03:02:50;8.13;;;2.87;;
3689;SDS011;1861;50.240;8.596;2023-05-27T03:05:19;9.87;;;2.50;;
3689;SDS011;1861;50.240;8.596;2023-05-27T03:07:48;7.50;;;2.57;;
3689;SDS011;1861;50.240;8.596;2023-05-27T03:10:17;10.97;;;2.90;;
3689;SDS011;1861;50.240;8.596;2023-05-27T03:12:46;8.77;;;3.03;;
3689;SDS011;1861;50.240;8.596;2023-05-27T03:15:14;7.37;;;2.27;;
3689;SDS011;1861;50.240;8.596;2023-05-27T03:17:42;13.13;;;3.10;;
3689;SDS011;1861;50.240;8.596;2023-05-27T03:20:12;7.50;;;2.23;;
3689;SDS011;1861;50.240;8.596;2023-05-27T03:22:45;6.33;;;3.07;;
3689;SDS011;1861;50.240;8.596;2023-05-27T03:25:15;9.23;;;2.17;;
3689;SDS011;1861;50.240;8.596;2023-05-27T03:27:45;6.70;;;2.27;;
3689;SDS011;1861;50.240;8.596;2023-05-27T03:30:16;7.43;;;2.47;;
3689;SDS011;1861;50.240;8.596;2023-05-27T03:32:47;9.53;;;2.47;;
3689;SDS011;1861;50.240;8.596;2023-05-27T03:35:22;8.20;;;2.80;;
3689;SDS011;1861;50.240;8.596;2023-05-27T03:37:53;9.87;;;2.57;;
3689;SDS011;1861;50.240;8.596;2023-05-27T03:40:22;11.93;;;2.83;;
3689;SDS011;1861;50.240;8.596;2023-05-27T03:42:51;10.10;;;2.23;;
3689;SDS011;1861;50.240;8.596;2023-05-27T03:45:22;12.87;;;3.20;;
3689;SDS011;1861;50.240;8.596;2023-05-27T03:47:51;5.07;;;2.33;;
3689;SDS011;1861;50.240;8.596;2023-05-27T03:50:20;7.83;;;2.80;;
3689;SDS011;1861;50.240;8.596;2023-05-27T03:52:49;12.37;;;3.20;;
3689;SDS011;1861;50.240;8.596;2023-05-27T03:55:21;7.83;;;2.47;;
3689;SDS011;1861;50.240;8.596;2023-05-27T03:57:50;9.33;;;2.60;;
3689;SDS011;1861;50.240;8.596;2023-05-27T04:00:19;8.83;;;2.97;;
3689;SDS011;1861;50.240;8.596;2023-05-27T04:02:48;14.73;;;3.50;;
3689;SDS011;1861;50.240;8.596;2023-05-27T04:05:17;10.03;;;2.90;;
3689;SDS011;1861;50.240;8.596;2023-05-27T04:07:45;9.00;;;2.40;;
3689;SDS011;1861;50.240;8.596;2023-05-27T04:10:17;4.90;;;2.53;;
3689;SDS011;1861;50.240;8.596;2023-05-27T04:12:47;11.47;;;2.80;;
3689;SDS011;1861;50.240;8.596;2023-05-27T04:15:15;7.40;;;2.77;;
3689;SDS011;1861;50.240;8.596;2023-05-27T04:17:43;10.27;;;3.07;;
3689;SDS011;1861;50.240;8.596;2023-05-27T04:20:12;9.80;;;2.97;;
3689;SDS011;1861;50.240;8.596;2023-05-27T04:22:45;10.30;;;2.27;;
3689;SDS011;1861;50.240;8.596;2023-05-27T04:25:14;9.00;;;2.77;;
3689;SDS011;1861;50.240;8.596;2023-05-27T04:28:09;11.27;;;3.30;;
3689;SDS011;1861;50.240;8.596;2023-05-27T04:30:42;13.87;;;3.00;;
3689;SDS011;1861;50.240;8.596;2023-05-27T04:33:41;16.90;;;3.40;;
3689;SDS011;1861;50.240;8.596;2023-05-27T04:36:13;8.80;;;2.50;;
3689;SDS011;1861;50.240;8.596;2023-05-27T04:39:06;12.40;;;3.10;;
3689;SDS011;1861;50.240;8.596;2023-05-27T04:41:36;10.90;;;2.83;;
3689;SDS011;1861;50.240;8.596;2023-05-27T04:44:19;9.67;;;2.70;;
3689;SDS011;1861;50.240;8.596;2023-05-27T04:46:49;10.80;;;3.07;;
3689;SDS011;1861;50.240;8.596;2023-05-27T04:49:18;9.93;;;2.97;;
3689;SDS011;1861;50.240;8.596;2023-05-27T04:51:47;10.97;;;3.23;;
3689;SDS011;1861;50.240;8.596;2023-05-27T04:54:18;7.97;;;2.33;;
3689;SDS011;1861;50.240;8.596;2023-05-27T04:56:48;12.57;;;2.73;;
3689;SDS011;1861;50.240;8.596;2023-05-27T04:59:23;5.00;;;2.43;;
3689;SDS011;1861;50.240;8.596;2023-05-27T05:02:02;11.00;;;2.57;;
3689;SDS011;1861;50.240;8.596;2023-05-27T05:05:00;5.37;;;3.00;;
3689;SDS011;1861;50.240;8.596;2023-05-27T05:07:28;9.47;;;3.00;;
3689;SDS011;1861;50.240;8.596;2023-05-27T05:09:57;7.97;;;3.07;;
3689;SDS011;1861;50.240;8.596;2023-05-27T05:12:32;16.83;;;4.83;;
3689;SDS011;1861;50.240;8.596;2023-05-27T05:15:02;10.67;;;2.27;;
3689;SDS011;1861;50.240;8.596;2023-05-27T05:17:30;9.10;;;2.63;;
3689;SDS011;1861;50.240;8.596;2023-05-27T05:19:59;12.10;;;2.97;;
3689;SDS011;1861;50.240;8.596;2023-05-27T05:22:28;13.33;;;3.07;;
3689;SDS011;1861;50.240;8.596;2023-05-27T05:24:57;12.77;;;3.30;;
3689;SDS011;1861;50.240;8.596;2023-05-27T05:27:31;9.40;;;3.10;;
3689;SDS011;1861;50.240;8.596;2023-05-27T05:30:04;7.20;;;2.83;;
3689;SDS011;1861;50.240;8.596;2023-05-27T05:32:33;10.33;;;3.27;;
3689;SDS011;1861;50.240;8.596;2023-05-27T05:35:02;14.13;;;3.17;;
3689;SDS011;1861;50.240;8.596;2023-05-27T05:37:31;9.90;;;3.03;;
3689;SDS011;1861;50.240;8.596;2023-05-27T05:40:00;10.30;;;3.20;;
3689;SDS011;1861;50.240;8.596;2023-05-27T05:42:32;5.90;;;4.00;;
3689;SDS011;1861;50.240;8.596;2023-05-27T05:45:00;15.47;;;3.77;;
3689;SDS011;1861;50.240;8.596;2023-05-27T05:47:31;9.23;;;2.30;;
3689;SDS011;1861;50.240;8.596;2023-05-27T05:50:08;11.63;;;3.00;;
3689;SDS011;1861;50.240;8.596;2023-05-27T05:52:37;11.17;;;3.10;;
3689;SDS011;1861;50.240;8.596;2023-05-27T05:55:10;8.13;;;2.70;;
3689;SDS011;1861;50.240;8.596;2023-05-27T05:57:38;11.07;;;2.73;;
3689;SDS011;1861;50.240;8.596;2023-05-27T06:00:09;9.30;;;3.40;;
3689;SDS011;1861;50.240;8.596;2023-05-27T06:02:46;10.40;;;3.10;;
3689;SDS011;1861;50.240;8.596;2023-05-27T06:05:41;14.17;;;2.83;;
3689;SDS011;1861;50.240;8.596;2023-05-27T06:08:10;14.07;;;4.67;;
3689;SDS011;1861;50.240;8.596;2023-05-27T06:10:42;12.90;;;3.13;;
3689;SDS011;1861;50.240;8.596;2023-05-27T06:13:13;8.80;;;3.03;;
3689;SDS011;1861;50.240;8.596;2023-05-27T06:15:42;7.47;;;2.90;;
3689;SDS011;1861;50.240;8.596;2023-05-27T06:18:13;12.47;;;2.80;;
3689;SDS011;1861;50.240;8.596;2023-05-27T06:20:44;6.67;;;2.67;;
3689;SDS011;1861;50.240;8.596;2023-05-27T06:23:13;9.80;;;2.73;;
3689;SDS011;1861;50.240;8.596;2023-05-27T06:26:03;12.30;;;3.03;;
3689;SDS011;1861;50.240;8.596;2023-05-27T06:28:39;8.30;;;2.23;;
3689;SDS011;1861;50.240;8.596;2023-05-27T06:31:08;7.07;;;2.17;;
3689;SDS011;1861;50.240;8.596;2023-05-27T06:33:43;7.87;;;2.03;;
3689;SDS011;1861;50.240;8.596;2023-05-27T06:36:12;6.00;;;2.20;;
3689;SDS011;1861;50.240;8.596;2023-05-27T06:38:41;10.33;;;2.30;;
3689;SDS011;1861;50.240;8.596;2023-05-27T06:41:10;11.57;;;2.40;;
3689;SDS011;1861;50.240;8.596;2023-05-27T06:43:48;7.83;;;2.60;;
3689;SDS011;1861;50.240;8.596;2023-05-27T06:46:24;9.30;;;2.63;;
3689;SDS011;1861;50.240;8.596;2023-05-27T06:49:06;13.17;;;3.30;;
3689;SDS011;1861;50.240;8.596;2023-05-27T06:51:35;10.13;;;2.70;;
3689;SDS011;1861;50.240;8.596;2023-05-27T06:54:04;7.40;;;2.17;;
3689;SDS011;1861;50.240;8.596;2023-05-27T06:56:41;5.07;;;1.90;;
3689;SDS011;1861;50.240;8.596;2023-05-27T06:59:28;4.83;;;2.17;;
3689;SDS011;1861;50.240;8.596;2023-05-27T07:01:56;4.80;;;2.10;;
3689;SDS011;1861;50.240;8.596;2023-05-27T07:04:26;9.00;;;2.33;;
3689;SDS011;1861;50.240;8.596;2023-05-27T07:06:58;6.80;;;1.97;;
3689;SDS011;1861;50.240;8.596;2023-05-27T07:09:26;9.37;;;2.63;;
3689;SDS011;1861;50.240;8.596;2023-05-27T07:11:55;11.93;;;2.53;;
3689;SDS011;1861;50.240;8.596;2023-05-27T07:14:45;4.83;;;2.10;;
3689;SDS011;1861;50.240;8.596;2023-05-27T07:17:14;11.60;;;2.87;;
3689;SDS011;1861;50.240;8.596;2023-05-27T07:19:46;11.30;;;2.87;;
3689;SDS011;1861;50.240;8.596;2023-05-27T07:22:18;10.33;;;2.30;;
3689;SDS011;1861;50.240;8.596;2023-05-27T07:24:49;9.50;;;2.27;;
3689;SDS011;1861;50.240;8.596;2023-05-27T07:27:19;9.80;;;3.03;;
3689;SDS011;1861;50.240;8.596;2023-05-27T07:29:54;8.93;;;3.30;;
3689;SDS011;1861;50.240;8.596;2023-05-27T07:32:38;7.20;;;1.93;;
3689;SDS011;1861;50.240;8.596;2023-05-27T07:35:09;9.13;;;2.67;;
3689;SDS011;1861;50.240;8.596;2023-05-27T07:37:41;2.57;;;1.93;;
3689;SDS011;1861;50.240;8.596;2023-05-27T07:40:10;9.77;;;2.50;;
3689;SDS011;1861;50.240;8.596;2023-05-27T07:42:39;9.90;;;2.40;;
3689;SDS011;1861;50.240;8.596;2023-05-27T07:45:08;6.63;;;2.30;;
3689;SDS011;1861;50.240;8.596;2023-05-27T07:47:38;11.67;;;3.33;;
3689;SDS011;1861;50.240;8.596;2023-05-27T07:50:06;9.97;;;2.47;;
3689;SDS011;1861;50.240;8.596;2023-05-27T07:52:39;6.57;;;2.27;;
3689;SDS011;1861;50.240;8.596;2023-05-27T07:55:19;6.70;;;2.70;;
3689;SDS011;1861;50.240;8.596;2023-05-27T07:57:48;9.37;;;3.20;;
3689;SDS011;1861;50.240;8.596;2023-05-27T08:00:16;10.63;;;2.40;;
3689;SDS011;1861;50.240;8.596;2023-05-27T08:02:53;8.70;;;2.63;;
3689;SDS011;1861;50.240;8.596;2023-05-27T08:05:39;11.93;;;2.57;;
3689;SDS011;1861;50.240;8.596;2023-05-27T08:08:17;9.90;;;2.70;;
3689;SDS011;1861;50.240;8.596;2023-05-27T08:11:04;16.13;;;2.67;;
3689;SDS011;1861;50.240;8.596;2023-05-27T08:13:56;10.07;;;2.60;;
3689;SDS011;1861;50.240;8.596;2023-05-27T08:16:47;7.37;;;2.40;;
3689;SDS011;1861;50.240;8.596;2023-05-27T08:19:27;11.23;;;3.20;;
3689;SDS011;1861;50.240;8.596;2023-05-27T08:22:08;7.00;;;2.00;;
3689;SDS011;1861;50.240;8.596;2023-05-27T08:24:55;5.00;;;2.70;;
3689;SDS011;1861;50.240;8.596;2023-05-27T08:27:43;8.53;;;2.50;;
3689;SDS011;1861;50.240;8.596;2023-05-27T08:30:35;12.90;;;6.27;;
3689;SDS011;1861;50.240;8.596;2023-05-27T08:33:10;10.03;;;3.00;;
3689;SDS011;1861;50.240;8.596;2023-05-27T08:35:38;7.37;;;2.30;;
3689;SDS011;1861;50.240;8.596;2023-05-27T08:38:08;8.93;;;2.63;;
3689;SDS011;1861;50.240;8.596;2023-05-27T08:40:39;7.07;;;3.17;;
3689;SDS011;1861;50.240;8.596;2023-05-27T08:43:07;9.93;;;3.00;;
3689;SDS011;1861;50.240;8.596;2023-05-27T08:45:41;5.43;;;2.00;;
3689;SDS011;1861;50.240;8.596;2023-05-27T08:48:10;8.60;;;2.77;;
3689;SDS011;1861;50.240;8.596;2023-05-27T08:50:40;8.10;;;2.67;;
3689;SDS011;1861;50.240;8.596;2023-05-27T08:53:12;15.27;;;3.17;;
3689;SDS011;1861;50.240;8.596;2023-05-27T08:55:42;6.77;;;2.27;;
3689;SDS011;1861;50.240;8.596;2023-05-27T08:58:12;12.03;;;2.33;;
3689;SDS011;1861;50.240;8.596;2023-05-27T09:00:46;9.60;;;2.30;;
3689;SDS011;1861;50.240;8.596;2023-05-27T09:03:20;8.70;;;2.80;;
3689;SDS011;1861;50.240;8.596;2023-05-27T09:05:52;5.67;;;2.50;;
3689;SDS011;1861;50.240;8.596;2023-05-27T09:08:22;6.47;;;2.30;;
3689;SDS011;1861;50.240;8.596;2023-05-27T09:11:07;8.90;;;2.70;;
3689;SDS011;1861;50.240;8.596;2023-05-27T09:13:47;6.17;;;2.20;;
3689;SDS011;1861;50.240;8.596;2023-05-27T09:16:19;10.10;;;3.10;;
3689;SDS011;1861;50.240;8.596;2023-05-27T09:18:49;9.37;;;2.60;;
3689;SDS011;1861;50.240;8.596;2023-05-27T09:21:17;6.70;;;2.10;;
3689;SDS011;1861;50.240;8.596;2023-05-27T09:23:47;10.40;;;2.57;;
3689;SDS011;1861;50.240;8.596;2023-05-27T09:26:15;4.50;;;2.30;;
3689;SDS011;1861;50.240;8.596;2023-05-27T09:28:43;14.23;;;2.87;;
3689;SDS011;1861;50.240;8.596;2023-05-27T09:31:12;6.57;;;2.50;;
3689;SDS011;1861;50.240;8.596;2023-05-27T09:33:40;9.57;;;2.67;;
3689;SDS011;1861;50.240;8.596;2023-05-27T09:36:09;8.33;;;2.60;;
3689;SDS011;1861;50.240;8.596;2023-05-27T09:38:37;8.50;;;2.67;;
3689;SDS011;1861;50.240;8.596;2023-05-27T09:41:06;10.83;;;2.60;;
3689;SDS011;1861;50.240;8.596;2023-05-27T09:43:34;7.07;;;2.40;;
3689;SDS011;1861;50.240;8.596;2023-05-27T09:46:10;7.33;;;2.40;;
3689;SDS011;1861;50.240;8.596;2023-05-27T09:48:39;6.93;;;2.40;;
3689;SDS011;1861;50.240;8.596;2023-05-27T09:51:08;12.30;;;2.57;;
3689;SDS011;1861;50.240;8.596;2023-05-27T09:53:37;17.73;;;3.10;;
3689;SDS011;1861;50.240;8.596;2023-05-27T09:56:07;13.77;;;2.57;;
3689;SDS011;1861;50.240;8.596;2023-05-27T09:58:35;11.80;;;2.43;;
3689;SDS011;1861;50.240;8.596;2023-05-27T10:01:04;6.97;;;2.20;;
3689;SDS011;1861;50.240;8.596;2023-05-27T10:03:33;12.83;;;2.73;;
3689;SDS011;1861;50.240;8.596;2023-05-27T10:06:04;9.20;;;2.93;;
3689;SDS011;1861;50.240;8.596;2023-05-27T10:08:33;6.33;;;2.00;;
3689;SDS011;1861;50.240;8.596;2023-05-27T10:11:01;9.60;;;2.20;;
3689;SDS011;1861;50.240;8.596;2023-05-27T10:13:31;12.23;;;2.50;;
3689;SDS011;1861;50.240;8.596;2023-05-27T10:16:00;10.20;;;2.60;;
3689;SDS011;1861;50.240;8.596;2023-05-27T10:18:29;8.50;;;2.70;;
3689;SDS011;1861;50.240;8.596;2023-05-27T10:21:03;14.10;;;2.73;;
3689;SDS011;1861;50.240;8.596;2023-05-27T10:23:32;8.70;;;2.73;;
3689;SDS011;1861;50.240;8.596;2023-05-27T10:26:01;7.90;;;2.70;;
3689;SDS011;1861;50.240;8.596;2023-05-27T10:28:34;6.90;;;2.40;;
3689;SDS011;1861;50.240;8.596;2023-05-27T10:31:06;7.00;;;2.30;;
3689;SDS011;1861;50.240;8.596;2023-05-27T10:33:35;5.67;;;2.23;;
3689;SDS011;1861;50.240;8.596;2023-05-27T10:36:08;3.83;;;1.80;;
3689;SDS011;1861;50.240;8.596;2023-05-27T10:38:38;8.97;;;2.70;;
3689;SDS011;1861;50.240;8.596;2023-05-27T10:41:08;7.23;;;2.40;;
3689;SDS011;1861;50.240;8.596;2023-05-27T10:43:38;3.97;;;2.43;;
3689;SDS011;1861;50.240;8.596;2023-05-27T10:46:07;14.90;;;2.97;;
3689;SDS011;1861;50.240;8.596;2023-05-27T10:48:37;6.23;;;2.27;;
3689;SDS011;1861;50.240;8.596;2023-05-27T10:51:06;9.60;;;3.53;;
3689;SDS011;1861;50.240;8.596;2023-05-27T10:53:35;14.33;;;3.13;;
3689;SDS011;1861;50.240;8.596;2023-05-27T10:56:04;6.27;;;2.03;;
3689;SDS011;1861;50.240;8.596;2023-05-27T10:58:35;4.73;;;2.27;;
3689;SDS011;1861;50.240;8.596;2023-05-27T11:01:08;4.50;;;2.50;;
3689;SDS011;1861;50.240;8.596;2023-05-27T11:03:41;5.90;;;2.37;;
3689;SDS011;1861;50.240;8.596;2023-05-27T11:06:11;7.43;;;2.33;;
3689;SDS011;1861;50.240;8.596;2023-05-27T11:08:42;10.03;;;2.00;;
3689;SDS011;1861;50.240;8.596;2023-05-27T11:11:11;4.83;;;2.17;;
3689;SDS011;1861;50.240;8.596;2023-05-27T11:13:40;5.40;;;2.00;;
3689;SDS011;1861;50.240;8.596;2023-05-27T11:16:15;8.90;;;2.57;;
3689;SDS011;1861;50.240;8.596;2023-05-27T11:18:44;7.87;;;2.70;;
3689;SDS011;1861;50.240;8.596;2023-05-27T11:21:14;7.67;;;2.53;;
3689;SDS011;1861;50.240;8.596;2023-05-27T11:23:43;15.50;;;7.30;;
3689;SDS011;1861;50.240;8.596;2023-05-27T11:26:14;18.07;;;12.30;;
3689;SDS011;1861;50.240;8.596;2023-05-27T11:28:46;19.57;;;11.47;;
3689;SDS011;1861;50.240;8.596;2023-05-27T11:31:17;17.90;;;9.43;;
3689;SDS011;1861;50.240;8.596;2023-05-27T11:33:48;39.33;;;24.37;;
3689;SDS011;1861;50.240;8.596;2023-05-27T11:36:18;32.80;;;21.83;;
3689;SDS011;1861;50.240;8.596;2023-05-27T11:38:51;39.20;;;25.23;;
3689;SDS011;1861;50.240;8.596;2023-05-27T11:41:20;40.30;;;30.97;;
3689;SDS011;1861;50.240;8.596;2023-05-27T11:43:50;158.53;;;112.20;;
3689;SDS011;1861;50.240;8.596;2023-05-27T11:46:21;161.93;;;119.40;;
3689;SDS011;1861;50.240;8.596;2023-05-27T11:48:49;91.23;;;61.90;;
3689;SDS011;1861;50.240;8.596;2023-05-27T11:51:25;45.30;;;27.27;;
3689;SDS011;1861;50.240;8.596;2023-05-27T11:53:55;42.00;;;29.40;;
3689;SDS011;1861;50.240;8.596;2023-05-27T11:56:25;21.53;;;14.53;;
3689;SDS011;1861;50.240;8.596;2023-05-27T11:58:55;18.83;;;11.60;;
3689;SDS011;1861;50.240;8.596;2023-05-27T12:01:25;16.47;;;10.40;;
3689;SDS011;1861;50.240;8.596;2023-05-27T12:03:53;17.47;;;12.70;;
3689;SDS011;1861;50.240;8.596;2023-05-27T12:06:22;10.70;;;6.93;;
3689;SDS011;1861;50.240;8.596;2023-05-27T12:08:50;13.77;;;7.77;;
3689;SDS011;1861;50.240;8.596;2023-05-27T12:11:18;10.47;;;5.27;;
3689;SDS011;1861;50.240;8.596;2023-05-27T12:13:46;22.93;;;5.40;;
3689;SDS011;1861;50.240;8.596;2023-05-27T12:16:15;9.03;;;5.23;;
3689;SDS011;1861;50.240;8.596;2023-05-27T12:18:44;8.13;;;6.77;;
3689;SDS011;1861;50.240;8.596;2023-05-27T12:21:14;10.40;;;3.63;;
3689;SDS011;1861;50.240;8.596;2023-05-27T12:23:43;8.87;;;3.47;;
3689;SDS011;1861;50.240;8.596;2023-05-27T12:26:12;11.67;;;4.60;;
3689;SDS011;1861;50.240;8.596;2023-05-27T12:28:41;13.27;;;4.77;;
3689;SDS011;1861;50.240;8.596;2023-05-27T12:31:10;5.40;;;3.80;;
3689;SDS011;1861;50.240;8.596;2023-05-27T12:33:38;8.83;;;3.50;;
3689;SDS011;1861;50.240;8.596;2023-05-27T12:36:09;8.07;;;2.90;;
3689;SDS011;1861;50.240;8.596;2023-05-27T12:38:38;8.10;;;3.93;;
3689;SDS011;1861;50.240;8.596;2023-05-27T12:41:06;7.03;;;3.23;;
3689;SDS011;1861;50.240;8.596;2023-05-27T12:43:34;20.87;;;5.13;;
3689;SDS011;1861;50.240;8.596;2023-05-27T12:46:03;7.87;;;3.77;;
3689;SDS011;1861;50.240;8.596;2023-05-27T12:48:31;9.77;;;4.17;;
3689;SDS011;1861;50.240;8.596;2023-05-27T12:50:59;5.17;;;3.43;;
3689;SDS011;1861;50.240;8.596;2023-05-27T12:53:29;6.77;;;3.30;;
3689;SDS011;1861;50.240;8.596;2023-05-27T12:55:57;5.33;;;3.23;;
3689;SDS011;1861;50.240;8.596;2023-05-27T12:58:25;6.50;;;3.03;;
3689;SDS011;1861;50.240;8.596;2023-05-27T13:00:53;5.27;;;4.50;;
3689;SDS011;1861;50.240;8.596;2023-05-27T13:03:22;9.23;;;4.00;;
3689;SDS011;1861;50.240;8.596;2023-05-27T13:05:51;8.30;;;4.13;;
3689;SDS011;1861;50.240;8.596;2023-05-27T13:08:19;6.60;;;3.17;;
3689;SDS011;1861;50.240;8.596;2023-05-27T13:10:49;7.70;;;3.50;;
3689;SDS011;1861;50.240;8.596;2023-05-27T13:13:17;7.23;;;4.50;;
3689;SDS011;1861;50.240;8.596;2023-05-27T13:15:45;4.60;;;3.60;;
3689;SDS011;1861;50.240;8.596;2023-05-27T13:18:14;7.33;;;3.40;;
3689;SDS011;1861;50.240;8.596;2023-05-27T13:20:42;5.97;;;3.37;;
3689;SDS011;1861;50.240;8.596;2023-05-27T13:23:10;7.20;;;3.17;;
3689;SDS011;1861;50.240;8.596;2023-05-27T13:25:38;9.63;;;3.53;;
3689;SDS011;1861;50.240;8.596;2023-05-27T13:28:08;9.67;;;2.83;;
3689;SDS011;1861;50.240;8.596;2023-05-27T13:30:36;6.50;;;3.00;;
3689;SDS011;1861;50.240;8.596;2023-05-27T13:33:04;11.43;;;4.03;;
3689;SDS011;1861;50.240;8.596;2023-05-27T13:35:33;7.60;;;2.50;;
3689;SDS011;1861;50.240;8.596;2023-05-27T13:38:01;5.97;;;2.90;;
3689;SDS011;1861;50.240;8.596;2023-05-27T13:40:30;6.73;;;2.90;;
3689;SDS011;1861;50.240;8.596;2023-05-27T13:42:58;6.40;;;3.30;;
3689;SDS011;1861;50.240;8.596;2023-05-27T13:45:27;5.67;;;3.77;;
3689;SDS011;1861;50.240;8.596;2023-05-27T13:47:56;7.00;;;3.43;;
3689;SDS011;1861;50.240;8.596;2023-05-27T13:50:24;4.83;;;3.13;;
3689;SDS011;1861;50.240;8.596;2023-05-27T13:52:54;5.37;;;3.30;;
3689;SDS011;1861;50.240;8.596;2023-05-27T13:55:22;6.07;;;3.10;;
3689;SDS011;1861;50.240;8.596;2023-05-27T13:57:51;4.50;;;3.40;;
3689;SDS011;1861;50.240;8.596;2023-05-27T14:00:19;10.13;;;2.87;;
3689;SDS011;1861;50.240;8.596;2023-05-27T14:02:49;12.47;;;2.97;;
3689;SDS011;1861;50.240;8.596;2023-05-27T14:05:18;4.50;;;2.20;;
3689;SDS011;1861;50.240;8.596;2023-05-27T14:07:46;4.47;;;2.97;;
3689;SDS011;1861;50.240;8.596;2023-05-27T14:10:14;4.87;;;3.50;;
3689;SDS011;1861;50.240;8.596;2023-05-27T14:12:42;6.90;;;3.10;;
3689;SDS011;1861;50.240;8.596;2023-05-27T14:15:11;8.50;;;3.37;;
3689;SDS011;1861;50.240;8.596;2023-05-27T14:17:39;4.73;;;3.10;;
3689;SDS011;1861;50.240;8.596;2023-05-27T14:20:09;4.77;;;2.90;;
3689;SDS011;1861;50.240;8.596;2023-05-27T14:22:38;3.63;;;2.83;;
3689;SDS011;1861;50.240;8.596;2023-05-27T14:25:08;2.70;;;1.70;;
3689;SDS011;1861;50.240;8.596;2023-05-27T14:27:37;8.77;;;3.20;;
3689;SDS011;1861;50.240;8.596;2023-05-27T14:30:05;5.53;;;3.30;;
3689;SDS011;1861;50.240;8.596;2023-05-27T14:32:34;7.47;;;3.07;;
3689;SDS011;1861;50.240;8.596;2023-05-27T14:35:03;5.10;;;2.40;;
3689;SDS011;1861;50.240;8.596;2023-05-27T14:37:33;8.03;;;2.50;;
3689;SDS011;1861;50.240;8.596;2023-05-27T14:40:01;5.80;;;2.60;;
3689;SDS011;1861;50.240;8.596;2023-05-27T14:42:31;5.37;;;3.30;;
3689;SDS011;1861;50.240;8.596;2023-05-27T14:44:59;10.13;;;2.80;;
3689;SDS011;1861;50.240;8.596;2023-05-27T14:47:28;6.30;;;2.43;;
3689;SDS011;1861;50.240;8.596;2023-05-27T14:49:56;4.80;;;3.13;;
3689;SDS011;1861;50.240;8.596;2023-05-27T14:52:24;10.33;;;2.63;;
3689;SDS011;1861;50.240;8.596;2023-05-27T14:54:54;3.73;;;2.50;;
3689;SDS011;1861;50.240;8.596;2023-05-27T14:57:22;5.00;;;2.63;;
3689;SDS011;1861;50.240;8.596;2023-05-27T14:59:50;4.17;;;2.20;;
3689;SDS011;1861;50.240;8.596;2023-05-27T15:02:18;4.93;;;2.23;;
3689;SDS011;1861;50.240;8.596;2023-05-27T15:04:49;6.93;;;2.60;;
3689;SDS011;1861;50.240;8.596;2023-05-27T15:07:17;4.97;;;2.27;;
3689;SDS011;1861;50.240;8.596;2023-05-27T15:09:48;5.40;;;2.10;;
3689;SDS011;1861;50.240;8.596;2023-05-27T15:12:18;5.93;;;2.10;;
3689;SDS011;1861;50.240;8.596;2023-05-27T15:14:46;5.27;;;2.50;;
3689;SDS011;1861;50.240;8.596;2023-05-27T15:17:15;3.70;;;2.20;;
3689;SDS011;1861;50.240;8.596;2023-05-27T15:19:43;3.43;;;2.10;;
3689;SDS011;1861;50.240;8.596;2023-05-27T15:22:11;11.10;;;2.27;;
3689;SDS011;1861;50.240;8.596;2023-05-27T15:24:39;2.73;;;1.97;;
3689;SDS011;1861;50.240;8.596;2023-05-27T15:27:08;6.83;;;2.43;;
3689;SDS011;1861;50.240;8.596;2023-05-27T15:29:37;4.77;;;2.60;;
3689;SDS011;1861;50.240;8.596;2023-05-27T15:32:05;8.87;;;2.33;;